Terminal Aerodrome Forecast
Issued by NWS

Home | Current Version | Previous Version | Text Only | Print | Product List | Glossary On
Versions: 1 2 3 4 5 6 7 8 9 10 11 12 13 14 15 16 17 18 19 20 21
000
FTUS43 KDDC 241937 AAA
TAFHYS
TAF AMD
KHYS 241937Z 2420/2518 19007KT P6SM VCSH OVC030
      TEMPO 2420/2422 3SM -RA BR BKN010
     FM250000 18007KT P6SM VCTS OVC040CB
     FM251000 VRB06KT 5SM -RA BR OVC030=

USA.gov is the U.S. government's official web portal to all federal, state and local government web resources and services.